Time;durP1;ratioP1;P1;durP2;ratioP2;P2;SDS_P1;SDS_P2;PMS_P1;PMS_P2;Temp;Humidity;BMP_temperature;BMP_pressure;BME280_temperature;BME280_humidity;BME280_pressure;Samples;Min_cycle;Max_cycle;Signal;HPM_P1;HPM_P2
2022/06/24 00:00:49;;;;;;;14.82;10.18;;;;;;;;;;5088439;28;20051;-73
2022/06/24 00:03:20;;;;;;;9.52;6.05;;;;;;;;;;5088978;28;20509;-73
2022/06/24 00:05:50;;;;;;;10.48;7.93;;;;;;;;;;5087117;28;20066;-73
2022/06/24 00:08:20;;;;;;;9.15;5.82;;;;;;;;;;5088415;28;20652;-73
2022/06/24 00:10:50;;;;;;;13.27;6.28;;;;;;;;;;5088741;28;20044;-73
2022/06/24 00:13:20;;;;;;;8.25;5.85;;;;;;;;;;5086487;28;20040;-73
2022/06/24 00:15:50;;;;;;;10.73;5.68;;;;;;;;;;5088070;28;20069;-73
2022/06/24 00:18:20;;;;;;;;;;;;;;;;;;5088203;28;20040;-75
2022/06/24 00:20:50;;;;;;;9.93;5.75;;;;;;;;;;5087082;28;19924;-73
2022/06/24 00:23:22;;;;;;;7.70;5.88;;;;;;;;;;5088217;28;20509;-73
2022/06/24 00:25:52;;;;;;;9.10;6.13;;;;;;;;;;5086996;28;20048;-72
2022/06/24 00:28:26;;;;;;;8.15;5.65;;;;;;;;;;5087776;28;20048;-72
2022/06/24 00:30:56;;;;;;;9.05;5.78;;;;;;;;;;5087412;28;20052;-73
2022/06/24 00:33:33;;;;;;;8.40;5.53;;;;;;;;;;5087710;28;20062;-73
2022/06/24 00:36:06;;;;;;;18.02;5.95;;;;;;;;;;5087426;28;20051;-73
2022/06/24 00:38:37;;;;;;;9.82;6.60;;;;;;;;;;5087404;28;20048;-73
2022/06/24 00:41:14;;;;;;;6.53;4.95;;;;;;;;;;5087462;28;20081;-73
2022/06/24 00:43:48;;;;;;;7.75;5.50;;;;;;;;;;5087344;28;20063;-73
2022/06/24 00:46:24;;;;;;;15.07;6.88;;;;;;;;;;5092662;28;20066;-73
2022/06/24 00:48:58;;;;;;;10.73;7.10;;;;;;;;;;5106854;28;20043;-73
2022/06/24 00:51:36;;;;;;;12.40;6.22;;;;;;;;;;5106597;28;20402;-73
2022/06/24 00:54:09;;;;;;;15.93;11.95;;;;;;;;;;5107626;28;20049;-73
2022/06/24 00:56:41;;;;;;;8.68;6.50;;;;;;;;;;5107871;28;20043;-73
2022/06/24 00:59:14;;;;;;;6.53;5.13;;;;;;;;;;5097697;28;20044;-73
2022/06/24 01:01:44;;;;;;;10.98;5.07;;;;;;;;;;5094656;28;20044;-73
2022/06/24 01:04:14;;;;;;;8.95;4.43;;;;;;;;;;5097717;28;20047;-73
2022/06/24 01:06:44;;;;;;;8.60;4.05;;;;;;;;;;5096618;28;20054;-73
2022/06/24 01:09:19;;;;;;;;;;;;;;;;;;5096473;28;20047;-73
2022/06/24 01:11:49;;;;;;;9.93;4.18;;;;;;;;;;5096059;28;19920;-73
2022/06/24 01:14:19;;;;;;;11.63;4.30;;;;;;;;;;5101815;28;20039;-73
2022/06/24 01:16:50;;;;;;;8.73;4.10;;;;;;;;;;5105501;28;20491;-73
2022/06/24 01:19:20;;;;;;;10.30;4.88;;;;;;;;;;5107133;28;20060;-73
2022/06/24 01:21:51;;;;;;;6.05;4.03;;;;;;;;;;5107218;28;20040;-73
2022/06/24 01:24:23;;;;;;;4.88;3.25;;;;;;;;;;5088470;28;20430;-73
2022/06/24 01:26:58;;;;;;;7.00;3.63;;;;;;;;;;5107297;28;20047;-73
2022/06/24 01:29:29;;;;;;;6.05;3.10;;;;;;;;;;5107079;28;20078;-73
2022/06/24 01:31:59;;;;;;;8.38;3.63;;;;;;;;;;5088252;28;20052;-73
2022/06/24 01:34:29;;;;;;;9.05;3.53;;;;;;;;;;5107930;28;20059;-73
2022/06/24 01:36:59;;;;;;;10.63;3.88;;;;;;;;;;5106851;28;20449;-73
2022/06/24 01:39:29;;;;;;;14.38;4.25;;;;;;;;;;5107187;28;20069;-73
2022/06/24 01:41:58;;;;;;;9.60;4.15;;;;;;;;;;5106905;28;20043;-73
2022/06/24 01:44:28;;;;;;;6.10;3.17;;;;;;;;;;5106720;28;20063;-73
2022/06/24 01:46:58;;;;;;;5.75;3.40;;;;;;;;;;5107491;28;20056;-75
2022/06/24 01:49:28;;;;;;;7.72;3.53;;;;;;;;;;5106166;28;20067;-73
2022/06/24 01:51:59;;;;;;;4.90;3.20;;;;;;;;;;5107468;28;20047;-73
2022/06/24 01:54:29;;;;;;;5.65;3.38;;;;;;;;;;5106821;28;20058;-73
2022/06/24 01:56:59;;;;;;;5.88;3.38;;;;;;;;;;5107646;28;20039;-73
2022/06/24 01:59:29;;;;;;;8.25;3.65;;;;;;;;;;5107297;28;20047;-73
2022/06/24 02:01:59;;;;;;;8.95;4.00;;;;;;;;;;5105888;28;20055;-73
2022/06/24 02:04:29;;;;;;;7.63;4.15;;;;;;;;;;5106877;28;20391;-73
2022/06/24 02:06:59;;;;;;;6.63;3.80;;;;;;;;;;5088784;28;20502;-73
2022/06/24 02:09:29;;;;;;;12.15;3.42;;;;;;;;;;5106739;28;20055;-73
2022/06/24 02:14:47;;;;;;;8.73;4.45;;;;;;;;;;5091856;28;20406;-73
2022/06/24 02:17:16;;;;;;;11.57;5.10;;;;;;;;;;5106879;28;20067;-73
2022/06/24 02:19:46;;;;;;;5.07;3.80;;;;;;;;;;5107390;28;20510;-73
2022/06/24 02:22:16;;;;;;;7.50;3.45;;;;;;;;;;5106879;28;20066;-73
2022/06/24 02:24:46;;;;;;;6.25;3.30;;;;;;;;;;5106761;28;20056;-73
2022/06/24 02:27:16;;;;;;;3.40;2.70;;;;;;;;;;5106964;28;20051;-73
2022/06/24 02:29:46;;;;;;;4.38;3.03;;;;;;;;;;5106797;28;20051;-73
2022/06/24 02:32:15;;;;;;;7.88;3.58;;;;;;;;;;5105832;28;20058;-73
2022/06/24 02:34:45;;;;;;;6.40;2.83;;;;;;;;;;5106850;28;20399;-73
2022/06/24 02:37:15;;;;;;;6.00;3.45;;;;;;;;;;5106206;28;20754;-73
2022/06/24 02:39:45;;;;;;;7.38;3.33;;;;;;;;;;5106882;28;20047;-73
2022/06/24 02:42:14;;;;;;;8.80;3.42;;;;;;;;;;5105773;28;20058;-73
2022/06/24 02:44:44;;;;;;;7.53;4.18;;;;;;;;;;5106691;28;20503;-73
2022/06/24 02:47:14;;;;;;;8.25;3.33;;;;;;;;;;5088743;28;20082;-79
2022/06/24 02:49:44;;;;;;;7.40;3.22;;;;;;;;;;5109428;28;20047;-73
2022/06/24 02:52:13;;;;;;;6.07;3.30;;;;;;;;;;5110514;28;21005;-73
2022/06/24 02:54:43;;;;;;;7.15;3.30;;;;;;;;;;5110173;28;20050;-73
2022/06/24 02:57:13;;;;;;;4.28;3.03;;;;;;;;;;5110111;28;20062;-73
2022/06/24 02:59:43;;;;;;;6.00;3.13;;;;;;;;;;5109879;28;20044;-73
2022/06/24 03:02:12;;;;;;;8.02;3.35;;;;;;;;;;5108886;28;20047;-73
2022/06/24 03:04:42;;;;;;;3.95;3.03;;;;;;;;;;5110600;28;20043;-73
2022/06/24 03:07:13;;;;;;;4.60;3.40;;;;;;;;;;5109725;28;20055;-73
2022/06/24 03:09:43;;;;;;;9.45;3.13;;;;;;;;;;5092079;28;20044;-73
2022/06/24 03:12:12;;;;;;;6.47;3.30;;;;;;;;;;5109833;28;20070;-73
2022/06/24 03:14:42;;;;;;;8.77;3.67;;;;;;;;;;5109362;28;20043;-73
2022/06/24 03:17:12;;;;;;;9.80;3.65;;;;;;;;;;5108437;28;20414;-73
2022/06/24 03:19:42;;;;;;;6.00;3.50;;;;;;;;;;5109628;28;20048;-73
2022/06/24 03:22:12;;;;;;;7.85;5.50;;;;;;;;;;5109708;28;20485;-73
2022/06/24 03:24:42;;;;;;;7.50;4.05;;;;;;;;;;5109173;28;20035;-73
2022/06/24 03:27:12;;;;;;;5.95;4.30;;;;;;;;;;5109465;28;20043;-73
2022/06/24 03:29:41;;;;;;;5.93;4.45;;;;;;;;;;5109967;28;20047;-73
2022/06/24 03:32:11;;;;;;;5.00;3.92;;;;;;;;;;5109620;28;20048;-73
2022/06/24 03:34:41;;;;;;;7.38;5.10;;;;;;;;;;5109266;28;20058;-72
2022/06/24 03:37:11;;;;;;;12.35;4.50;;;;;;;;;;5108731;28;20521;-73
2022/06/24 03:39:41;;;;;;;14.48;4.53;;;;;;;;;;5109379;28;20043;-73
2022/06/24 03:42:11;;;;;;;7.32;4.80;;;;;;;;;;5109098;28;20047;-73
2022/06/24 03:44:40;;;;;;;9.48;4.55;;;;;;;;;;5109429;28;20421;-73
2022/06/24 03:47:13;;;;;;;12.05;4.95;;;;;;;;;;5109269;28;20047;-73
2022/06/24 03:49:43;;;;;;;10.85;5.07;;;;;;;;;;5109195;28;20532;-73
2022/06/24 03:52:13;;;;;;;12.90;5.90;;;;;;;;;;5109266;28;20388;-73
2022/06/24 03:54:43;;;;;;;11.90;5.32;;;;;;;;;;5109383;28;20047;-73
2022/06/24 03:57:13;;;;;;;8.18;4.75;;;;;;;;;;5109939;28;20522;-73
2022/06/24 03:59:44;;;;;;;12.38;6.40;;;;;;;;;;5107620;28;20043;-72
2022/06/24 04:02:14;;;;;;;19.15;11.82;;;;;;;;;;5108465;28;20059;-72
2022/06/24 04:04:43;;;;;;;20.08;13.95;;;;;;;;;;5090745;28;20052;-73
2022/06/24 04:07:15;;;;;;;18.42;11.13;;;;;;;;;;5108873;28;20036;-72
2022/06/24 04:09:46;;;;;;;19.88;12.10;;;;;;;;;;5108699;28;20407;-73
2022/06/24 04:12:15;;;;;;;22.40;13.10;;;;;;;;;;5108712;28;20513;-73
2022/06/24 04:17:33;;;;;;;22.60;15.15;;;;;;;;;;5108804;28;20051;-73
2022/06/24 04:20:04;;;;;;;33.03;17.35;;;;;;;;;;5108371;28;20051;-73
2022/06/24 04:22:34;;;;;;;31.85;19.27;;;;;;;;;;5107261;28;20048;-73
2022/06/24 04:25:04;;;;;;;36.83;20.52;;;;;;;;;;5108128;28;20051;-73
2022/06/24 04:27:34;;;;;;;35.97;20.10;;;;;;;;;;5108012;28;20051;-73
2022/06/24 04:30:08;;;;;;;39.13;21.05;;;;;;;;;;5108440;28;21014;-73
2022/06/24 04:32:38;;;;;;;39.28;21.50;;;;;;;;;;5108045;28;20039;-73
2022/06/24 04:35:09;;;;;;;37.85;21.35;;;;;;;;;;5108863;28;20051;-73
2022/06/24 04:37:40;;;;;;;35.42;19.20;;;;;;;;;;5108278;28;20525;-73
2022/06/24 04:40:13;;;;;;;32.58;18.80;;;;;;;;;;5107567;28;20055;-72
2022/06/24 04:42:46;;;;;;;36.90;18.58;;;;;;;;;;5107963;28;20406;-73
2022/06/24 04:45:16;;;;;;;42.70;18.52;;;;;;;;;;5107960;28;20054;-73
2022/06/24 04:47:46;;;;;;;35.58;18.58;;;;;;;;;;5089886;28;20063;-72
2022/06/24 04:50:16;;;;;;;31.50;16.45;;;;;;;;;;5107939;28;20415;-72
2022/06/24 04:52:46;;;;;;;34.55;17.20;;;;;;;;;;5107724;28;20513;-73
2022/06/24 04:55:16;;;;;;;31.75;17.95;;;;;;;;;;5088980;28;20544;-73
2022/06/24 04:57:47;;;;;;;36.75;17.38;;;;;;;;;;5107724;28;20055;-73
2022/06/24 05:00:16;;;;;;;;;;;;;;;;;;5108527;28;20106;-73
2022/06/24 05:02:47;;;;;;;29.73;15.68;;;;;;;;;;5107944;28;19997;-72
2022/06/24 05:05:18;;;;;;;36.50;16.83;;;;;;;;;;5107753;28;20524;-73
2022/06/24 05:07:48;;;;;;;25.63;14.60;;;;;;;;;;5108106;28;20055;-73
2022/06/24 05:10:18;;;;;;;31.03;15.70;;;;;;;;;;5107501;28;20059;-73
2022/06/24 05:12:48;;;;;;;30.95;15.63;;;;;;;;;;5107390;28;20502;-73
2022/06/24 05:15:18;;;;;;;30.27;14.45;;;;;;;;;;5107435;28;20051;-73
2022/06/24 05:17:48;;;;;;;26.30;14.05;;;;;;;;;;5089764;28;20056;-73
2022/06/24 05:20:18;;;;;;;27.33;13.50;;;;;;;;;;5107222;28;20105;-73
2022/06/24 05:22:48;;;;;;;27.52;13.40;;;;;;;;;;5107655;28;20051;-73
2022/06/24 05:25:18;;;;;;;23.10;12.90;;;;;;;;;;5107116;28;20062;-73
2022/06/24 05:27:48;;;;;;;27.42;12.25;;;;;;;;;;5106739;28;20059;-73
2022/06/24 05:30:18;;;;;;;22.20;11.48;;;;;;;;;;5088524;28;20063;-73
2022/06/24 05:32:48;;;;;;;24.20;10.77;;;;;;;;;;5107186;28;20058;-73
2022/06/24 05:35:18;;;;;;;18.80;10.00;;;;;;;;;;5106937;28;20052;-73
2022/06/24 05:37:47;;;;;;;18.55;8.75;;;;;;;;;;5106898;28;20052;-72
2022/06/24 05:40:17;;;;;;;19.63;9.85;;;;;;;;;;5106780;28;20058;-73
2022/06/24 05:42:47;;;;;;;17.63;9.38;;;;;;;;;;5107041;28;20052;-73
2022/06/24 05:45:17;;;;;;;34.85;16.75;;;;;;;;;;5106840;28;20051;-73
2022/06/24 05:47:47;;;;;;;25.95;12.05;;;;;;;;;;5107994;28;20055;-73
2022/06/24 05:50:17;;;;;;;30.48;13.93;;;;;;;;;;5107127;28;20056;-73
2022/06/24 05:55:35;;;;;;;20.50;8.75;;;;;;;;;;5088276;28;20422;-73
2022/06/24 05:58:05;;;;;;;15.10;7.10;;;;;;;;;;5107053;28;20044;-73
2022/06/24 06:00:35;;;;;;;10.57;6.00;;;;;;;;;;5106894;28;20050;-72
2022/06/24 06:03:06;;;;;;;17.08;6.72;;;;;;;;;;5106469;28;20047;-73
2022/06/24 06:05:36;;;;;;;11.87;5.93;;;;;;;;;;5106955;28;20047;-73
2022/06/24 06:08:06;;;;;;;16.08;6.45;;;;;;;;;;5107425;28;20483;-73
2022/06/24 06:10:37;;;;;;;18.35;7.25;;;;;;;;;;5107409;28;20048;-73
2022/06/24 06:13:07;;;;;;;16.85;6.68;;;;;;;;;;5106857;28;20676;-73
2022/06/24 06:15:37;;;;;;;10.43;4.47;;;;;;;;;;5106295;28;20063;-73
2022/06/24 06:18:07;;;;;;;10.30;4.95;;;;;;;;;;5106887;28;20058;-73
2022/06/24 06:20:38;;;;;;;11.10;4.90;;;;;;;;;;5106629;28;20053;-72
2022/06/24 06:23:13;;;;;;;9.65;4.07;;;;;;;;;;5091780;28;20345;-73
2022/06/24 06:25:43;;;;;;;11.35;4.70;;;;;;;;;;5110459;28;20044;-72
2022/06/24 06:28:13;;;;;;;7.72;3.90;;;;;;;;;;5110349;28;20062;-73
2022/06/24 06:30:43;;;;;;;10.90;3.90;;;;;;;;;;5110419;28;20055;-73
2022/06/24 06:33:13;;;;;;;6.78;4.03;;;;;;;;;;5110840;28;20051;-73
2022/06/24 06:35:43;;;;;;;11.20;3.78;;;;;;;;;;5110480;28;20067;-73
2022/06/24 06:38:12;;;;;;;14.25;3.70;;;;;;;;;;5110416;28;20055;-73
2022/06/24 06:40:42;;;;;;;10.25;4.82;;;;;;;;;;5110499;28;20584;-73
2022/06/24 06:43:12;;;;;;;11.23;5.25;;;;;;;;;;5110425;28;20052;-73
2022/06/24 06:45:42;;;;;;;9.82;4.40;;;;;;;;;;5110127;28;20434;-72
2022/06/24 06:48:12;;;;;;;5.25;3.60;;;;;;;;;;5092477;28;20502;-73
2022/06/24 06:50:43;;;;;;;8.68;3.97;;;;;;;;;;5110055;28;20393;-73
2022/06/24 06:53:12;;;;;;;4.35;2.78;;;;;;;;;;5109968;28;20502;-73
2022/06/24 06:55:42;;;;;;;8.07;2.67;;;;;;;;;;5092521;28;20047;-73
2022/06/24 06:58:18;;;;;;;4.70;2.75;;;;;;;;;;5110367;28;20043;-72
2022/06/24 07:00:48;;;;;;;11.82;3.10;;;;;;;;;;5110390;28;20040;-72
2022/06/24 07:03:19;;;;;;;6.15;2.30;;;;;;;;;;5109902;28;20054;-72
2022/06/24 07:05:50;;;;;;;4.90;2.22;;;;;;;;;;5090907;28;20055;-72
2022/06/24 07:08:20;;;;;;;2.50;2.10;;;;;;;;;;5110191;28;20043;-73
2022/06/24 07:10:50;;;;;;;3.58;2.28;;;;;;;;;;5110274;28;20051;-73
2022/06/24 07:13:20;;;;;;;9.30;2.40;;;;;;;;;;5109436;28;20640;-73
2022/06/24 07:15:50;;;;;;;5.10;2.17;;;;;;;;;;5109670;28;20051;-72
2022/06/24 07:18:20;;;;;;;7.95;2.25;;;;;;;;;;5109729;28;20051;-72
2022/06/24 07:20:49;;;;;;;4.32;1.67;;;;;;;;;;5110540;28;20058;-71
2022/06/24 07:23:19;;;;;;;6.18;2.28;;;;;;;;;;5109355;28;20514;-72
2022/06/24 07:25:49;;;;;;;3.05;1.65;;;;;;;;;;5109379;28;20052;-72
2022/06/24 07:28:19;;;;;;;4.10;1.95;;;;;;;;;;5109626;28;20695;-72
2022/06/24 07:30:49;;;;;;;3.17;1.98;;;;;;;;;;5108976;28;20050;-71
2022/06/24 07:33:19;;;;;;;3.58;2.20;;;;;;;;;;5108889;28;20051;-71
2022/06/24 07:35:49;;;;;;;6.82;2.30;;;;;;;;;;5109507;28;20044;-71
2022/06/24 07:38:20;;;;;;;4.70;2.13;;;;;;;;;;5109432;28;20047;-72
2022/06/24 07:40:51;;;;;;;3.90;2.05;;;;;;;;;;5109458;28;20067;-71
2022/06/24 07:43:22;;;;;;;4.55;2.10;;;;;;;;;;5109526;28;20043;-72
2022/06/24 07:45:52;;;;;;;7.53;2.47;;;;;;;;;;5109205;28;20050;-71
2022/06/24 07:48:22;;;;;;;9.30;3.00;;;;;;;;;;5108097;28;20047;-71
2022/06/24 07:50:52;;;;;;;5.50;2.73;;;;;;;;;;5108892;28;20042;-71
2022/06/24 07:53:22;;;;;;;4.03;2.47;;;;;;;;;;5091257;28;20058;-72
2022/06/24 07:59:00;;;;;;;9.68;2.78;;;;;;;;;;5025915;28;20088;-72
2022/06/24 08:01:30;;;;;;;14.98;2.90;;;;;;;;;;5025763;28;20061;-72
2022/06/24 08:04:07;;;;;;;9.10;2.60;;;;;;;;;;5070238;28;20067;-72
2022/06/24 08:06:40;;;;;;;10.05;2.88;;;;;;;;;;5109128;28;20049;-71
2022/06/24 08:09:10;;;;;;;5.00;2.58;;;;;;;;;;5108725;28;20039;-71
2022/06/24 08:11:41;;;;;;;6.85;2.30;;;;;;;;;;5108480;28;20047;-71
2022/06/24 08:14:12;;;;;;;7.15;2.67;;;;;;;;;;5108847;28;20043;-72
2022/06/24 08:16:43;;;;;;;4.88;2.80;;;;;;;;;;5108239;28;20577;-72
2022/06/24 08:19:16;;;;;;;9.02;2.83;;;;;;;;;;5108577;28;20040;-72
2022/06/24 08:21:46;;;;;;;6.90;2.83;;;;;;;;;;5109385;28;20036;-72
2022/06/24 08:24:16;;;;;;;5.65;2.72;;;;;;;;;;5108625;28;20052;-72
2022/06/24 08:26:46;;;;;;;8.07;3.42;;;;;;;;;;5108505;28;20063;-72
2022/06/24 08:29:16;;;;;;;10.55;3.13;;;;;;;;;;5108804;28;20055;-72
2022/06/24 08:31:45;;;;;;;8.00;2.72;;;;;;;;;;5108283;28;20044;-72
2022/06/24 08:34:15;;;;;;;10.57;2.85;;;;;;;;;;5108381;28;20040;-72
2022/06/24 08:36:45;;;;;;;6.68;2.70;;;;;;;;;;5107881;28;20781;-72
2022/06/24 08:39:15;;;;;;;7.35;2.83;;;;;;;;;;5108522;28;20486;-72
2022/06/24 08:41:47;;;;;;;5.78;2.70;;;;;;;;;;5108180;28;20055;-72
2022/06/24 08:44:17;;;;;;;15.82;3.30;;;;;;;;;;5090020;28;20521;-72
2022/06/24 08:46:47;;;;;;;13.25;3.13;;;;;;;;;;5107074;28;20055;-72
2022/06/24 08:49:18;;;;;;;6.95;2.95;;;;;;;;;;5108140;28;20051;-71
2022/06/24 08:51:49;;;;;;;20.33;3.13;;;;;;;;;;5089555;28;20537;-72
2022/06/24 08:54:22;;;;;;;23.42;3.35;;;;;;;;;;5107200;28;20078;-72
2022/06/24 08:56:54;;;;;;;16.88;3.05;;;;;;;;;;5108216;28;20036;-72
2022/06/24 08:59:27;;;;;;;17.35;3.67;;;;;;;;;;5090190;28;20407;-72
2022/06/24 09:01:57;;;;;;;8.77;3.30;;;;;;;;;;5089896;28;20518;-72
2022/06/24 09:04:27;;;;;;;19.63;3.20;;;;;;;;;;5107570;28;20054;-72
2022/06/24 09:06:57;;;;;;;8.35;3.47;;;;;;;;;;5108125;28;20054;-72
2022/06/24 09:09:28;;;;;;;6.20;3.13;;;;;;;;;;5107631;28;20048;-72
2022/06/24 09:12:01;;;;;;;6.63;2.85;;;;;;;;;;5089858;28;20058;-71
2022/06/24 09:14:47;;;;;;;9.55;3.13;;;;;;;;;;5107781;28;20043;-72
2022/06/24 09:17:17;;;;;;;7.43;2.95;;;;;;;;;;5107442;28;20040;-72
2022/06/24 09:19:47;;;;;;;20.95;3.20;;;;;;;;;;5107562;28;20043;-72
2022/06/24 09:22:37;;;;;;;9.77;3.10;;;;;;;;;;5107697;28;20040;-71
2022/06/24 09:25:08;;;;;;;10.45;3.08;;;;;;;;;;5107235;28;20035;-72
2022/06/24 09:27:46;;;;;;;15.30;3.72;;;;;;;;;;5107114;28;20047;-72
2022/06/24 09:30:17;;;;;;;7.82;3.03;;;;;;;;;;5107488;28;20048;-73
2022/06/24 09:32:54;;;;;;;6.57;3.10;;;;;;;;;;5107576;28;20047;-72
2022/06/24 09:35:45;;;;;;;33.50;3.80;;;;;;;;;;5106958;28;20044;-72
2022/06/24 09:38:15;;;;;;;29.70;2.80;;;;;;;;;;5107357;28;20035;-72
2022/06/24 09:40:45;;;;;;;9.95;2.63;;;;;;;;;;5107212;28;20050;-73
2022/06/24 09:43:15;;;;;;;6.00;3.03;;;;;;;;;;5107422;28;20044;-73
2022/06/24 09:45:49;;;;;;;5.25;3.30;;;;;;;;;;5089344;28;20040;-73
2022/06/24 09:48:32;;;;;;;21.00;3.40;;;;;;;;;;5106826;28;20051;-72
2022/06/24 09:51:07;;;;;;;23.23;3.22;;;;;;;;;;5107234;28;20043;-73
2022/06/24 09:53:40;;;;;;;21.38;3.53;;;;;;;;;;5107123;28;20055;-73
2022/06/24 09:56:11;;;;;;;15.80;5.90;;;;;;;;;;5106821;28;20047;-72
2022/06/24 09:58:43;;;;;;;9.18;3.42;;;;;;;;;;5109860;28;20035;-77
2022/06/24 10:01:13;;;;;;;6.32;3.08;;;;;;;;;;5111878;28;20044;-73
2022/06/24 10:03:51;;;;;;;7.47;3.47;;;;;;;;;;5111287;28;20054;-73
2022/06/24 10:06:23;;;;;;;12.68;3.30;;;;;;;;;;5111054;28;20463;-73
2022/06/24 10:08:55;;;;;;;24.08;3.30;;;;;;;;;;5110995;28;20414;-72
2022/06/24 10:11:40;;;;;;;7.47;3.88;;;;;;;;;;5094376;28;20051;-73
2022/06/24 10:14:12;;;;;;;8.02;3.33;;;;;;;;;;5092172;28;20082;-74
2022/06/24 10:16:44;;;;;;;9.80;3.55;;;;;;;;;;5111009;28;20529;-74
2022/06/24 10:19:17;;;;;;;10.73;3.33;;;;;;;;;;5111253;28;20055;-73
2022/06/24 10:21:51;;;;;;;10.52;3.70;;;;;;;;;;5111049;28;20052;-72
2022/06/24 10:24:21;;;;;;;15.70;3.63;;;;;;;;;;5110655;28;20039;-74
2022/06/24 10:26:52;;;;;;;8.77;3.35;;;;;;;;;;5110679;28;20292;-73
2022/06/24 10:29:32;;;;;;;8.23;3.28;;;;;;;;;;5092195;28;20498;-74
2022/06/24 10:32:05;;;;;;;9.07;3.58;;;;;;;;;;5092519;28;20422;-72
2022/06/24 10:34:36;;;;;;;6.47;3.28;;;;;;;;;;5110234;28;20047;-73
2022/06/24 10:37:16;;;;;;;8.20;3.88;;;;;;;;;;5109932;28;20055;-72
2022/06/24 10:39:51;;;;;;;6.32;3.63;;;;;;;;;;5108596;28;20047;-72
2022/06/24 10:42:23;;;;;;;7.88;4.78;;;;;;;;;;5110058;28;20039;-73
2022/06/24 10:45:04;;;;;;;14.40;7.80;;;;;;;;;;5110859;28;20047;-73
2022/06/24 10:47:38;;;;;;;;;;;;;;;;;;5110888;28;20054;-73
2022/06/24 10:50:13;;;;;;;10.65;3.58;;;;;;;;;;5109450;28;20422;-73
2022/06/24 10:52:48;;;;;;;10.85;3.92;;;;;;;;;;5110833;28;20066;-73
2022/06/24 10:55:18;;;;;;;7.95;3.78;;;;;;;;;;5110167;28;20070;-72
2022/06/24 10:57:55;;;;;;;9.27;4.18;;;;;;;;;;5110188;28;20051;-73
2022/06/24 11:00:28;;;;;;;7.25;3.75;;;;;;;;;;5109883;28;20503;-73
2022/06/24 11:03:14;;;;;;;7.07;4.30;;;;;;;;;;5110218;28;20047;-73
2022/06/24 11:05:46;;;;;;;7.03;4.38;;;;;;;;;;5109870;28;20066;-73
2022/06/24 11:08:24;;;;;;;9.18;4.30;;;;;;;;;;5110178;28;20048;-73
2022/06/24 11:10:55;;;;;;;9.70;3.50;;;;;;;;;;5109980;28;20043;-74
2022/06/24 11:13:25;;;;;;;11.20;4.18;;;;;;;;;;5109760;28;20051;-73
2022/06/24 11:16:01;;;;;;;8.93;4.13;;;;;;;;;;5109406;28;20047;-71
2022/06/24 11:18:33;;;;;;;10.70;3.97;;;;;;;;;;5109323;28;20491;-71
2022/06/24 11:21:07;;;;;;;9.45;4.93;;;;;;;;;;5109921;28;20054;-73
2022/06/24 11:23:40;;;;;;;9.60;4.20;;;;;;;;;;5109637;28;20040;-73
2022/06/24 11:26:17;;;;;;;12.38;4.47;;;;;;;;;;5109375;28;20537;-74
2022/06/24 11:28:52;;;;;;;6.15;3.63;;;;;;;;;;5109666;28;20039;-73
2022/06/24 11:31:26;;;;;;;7.70;3.80;;;;;;;;;;5109043;28;20066;-74
2022/06/24 11:33:59;;;;;;;6.75;3.97;;;;;;;;;;5109514;28;20525;-73
2022/06/24 11:36:31;;;;;;;5.72;4.07;;;;;;;;;;5109586;28;20054;-72
2022/06/24 11:39:04;;;;;;;9.20;4.18;;;;;;;;;;5109200;28;20059;-73
2022/06/24 11:41:39;;;;;;;14.20;5.40;;;;;;;;;;5109443;28;20055;-73
2022/06/24 11:44:39;;;;;;;7.38;3.80;;;;;;;;;;5109018;28;20044;-74
2022/06/24 11:47:09;;;;;;;5.13;3.47;;;;;;;;;;5108788;28;20047;-72
2022/06/24 11:49:46;;;;;;;12.93;4.03;;;;;;;;;;5108858;28;20047;-72
2022/06/24 11:52:15;;;;;;;8.52;3.38;;;;;;;;;;5109333;28;20147;-72
2022/06/24 11:54:45;;;;;;;9.82;3.83;;;;;;;;;;5109255;28;20593;-73
2022/06/24 11:57:15;;;;;;;8.65;3.45;;;;;;;;;;5109250;28;20043;-73
2022/06/24 11:59:46;;;;;;;16.05;4.40;;;;;;;;;;5108820;28;20855;-73
2022/06/24 12:02:17;;;;;;;8.98;4.50;;;;;;;;;;5109001;28;20040;-73
2022/06/24 12:04:47;;;;;;;5.45;3.80;;;;;;;;;;5108889;28;20054;-73
2022/06/24 12:07:18;;;;;;;11.30;4.35;;;;;;;;;;5109083;28;20043;-73
2022/06/24 12:09:48;;;;;;;12.02;4.55;;;;;;;;;;5108552;28;20040;-73
2022/06/24 12:12:18;;;;;;;8.20;4.07;;;;;;;;;;5108564;28;20047;-72
2022/06/24 12:14:58;;;;;;;13.20;5.55;;;;;;;;;;5108930;28;20430;-72
2022/06/24 12:17:29;;;;;;;7.83;3.30;;;;;;;;;;5109127;28;20078;-74
2022/06/24 12:20:02;;;;;;;10.95;3.85;;;;;;;;;;5089249;28;20055;-72
2022/06/24 12:22:32;;;;;;;5.90;3.70;;;;;;;;;;5108642;28;20047;-72
2022/06/24 12:25:10;;;;;;;8.07;3.40;;;;;;;;;;5108523;28;20047;-73
2022/06/24 12:27:41;;;;;;;6.32;3.28;;;;;;;;;;5108252;28;20048;-73
2022/06/24 12:30:21;;;;;;;8.07;3.72;;;;;;;;;;5108567;28;20055;-72
2022/06/24 12:32:57;;;;;;;6.82;4.20;;;;;;;;;;5108297;28;20113;-72
2022/06/24 12:35:34;;;;;;;8.40;4.10;;;;;;;;;;5108431;28;20039;-75
2022/06/24 12:38:14;;;;;;;9.00;3.63;;;;;;;;;;5107513;28;20052;-72
2022/06/24 12:40:44;;;;;;;7.32;3.85;;;;;;;;;;5109117;28;20047;-72
2022/06/24 12:43:14;;;;;;;8.10;3.70;;;;;;;;;;5108475;28;20113;-72
2022/06/24 12:45:44;;;;;;;12.48;4.28;;;;;;;;;;5088692;28;20070;-72
2022/06/24 12:51:14;;;;;;;9.95;4.00;;;;;;;;;;5108136;28;20044;-72
2022/06/24 12:53:52;;;;;;;5.65;4.28;;;;;;;;;;5107499;28;20061;-72
2022/06/24 12:56:22;;;;;;;12.50;4.20;;;;;;;;;;5108350;28;20855;-72
2022/06/24 12:58:53;;;;;;;8.45;4.25;;;;;;;;;;5108259;28;20059;-72
2022/06/24 13:01:31;;;;;;;10.73;4.15;;;;;;;;;;5107696;28;20410;-72
2022/06/24 13:04:02;;;;;;;11.10;4.07;;;;;;;;;;5108059;28;20051;-74
2022/06/24 13:06:31;;;;;;;8.00;3.53;;;;;;;;;;5108224;28;20048;-72
2022/06/24 13:09:03;;;;;;;7.72;3.78;;;;;;;;;;5108003;28;20051;-72
2022/06/24 13:11:34;;;;;;;9.27;3.72;;;;;;;;;;5107869;28;20410;-72
2022/06/24 13:14:05;;;;;;;7.60;3.75;;;;;;;;;;5107283;28;20482;-72
2022/06/24 13:16:35;;;;;;;6.53;3.63;;;;;;;;;;5107075;28;20498;-74
2022/06/24 13:19:04;;;;;;;16.92;10.27;;;;;;;;;;5107537;28;20062;-73
2022/06/24 13:21:34;;;;;;;12.30;3.58;;;;;;;;;;5107316;28;20040;-72
2022/06/24 13:24:04;;;;;;;8.13;3.92;;;;;;;;;;5106460;28;20525;-72
2022/06/24 13:26:34;;;;;;;7.28;3.65;;;;;;;;;;5089520;28;20418;-72
2022/06/24 13:29:04;;;;;;;6.55;3.35;;;;;;;;;;5107373;28;20052;-72
2022/06/24 13:31:33;;;;;;;10.88;3.72;;;;;;;;;;5107575;28;20047;-73
2022/06/24 13:34:03;;;;;;;8.15;4.00;;;;;;;;;;5105925;28;20532;-72
2022/06/24 13:36:34;;;;;;;;;;;;;;;;;;5107453;28;20057;-72
2022/06/24 13:39:05;;;;;;;6.40;3.88;;;;;;;;;;5088920;28;19930;-73
2022/06/24 13:41:35;;;;;;;10.40;3.50;;;;;;;;;;5106991;28;20047;-72
2022/06/24 13:44:06;;;;;;;6.38;4.25;;;;;;;;;;5106885;28;20281;-73
2022/06/24 13:46:35;;;;;;;7.80;4.15;;;;;;;;;;5107118;28;20541;-72
2022/06/24 13:49:05;;;;;;;10.35;4.93;;;;;;;;;;5107504;28;20035;-72
2022/06/24 13:51:35;;;;;;;8.10;4.25;;;;;;;;;;5107639;28;20050;-72
2022/06/24 13:54:05;;;;;;;11.43;5.25;;;;;;;;;;5107277;28;20040;-72
2022/06/24 13:56:35;;;;;;;9.32;4.63;;;;;;;;;;5107512;28;20059;-72
2022/06/24 13:59:05;;;;;;;13.02;5.10;;;;;;;;;;5107612;28;20055;-72
2022/06/24 14:01:35;;;;;;;11.00;5.07;;;;;;;;;;5106760;28;20047;-72
2022/06/24 14:04:05;;;;;;;12.50;5.13;;;;;;;;;;5107004;28;20495;-72
2022/06/24 14:06:35;;;;;;;13.15;5.28;;;;;;;;;;5107237;28;20640;-72
2022/06/24 14:09:05;;;;;;;10.85;4.63;;;;;;;;;;5106649;28;20043;-72
2022/06/24 14:11:35;;;;;;;15.38;5.78;;;;;;;;;;5107346;28;20054;-72
2022/06/24 14:14:05;;;;;;;16.88;5.82;;;;;;;;;;5106272;28;20494;-72
2022/06/24 14:16:35;;;;;;;14.35;5.53;;;;;;;;;;5106907;28;20039;-72
2022/06/24 14:19:25;;;;;;;18.10;6.40;;;;;;;;;;5106799;28;20050;-72
2022/06/24 14:21:55;;;;;;;12.10;5.53;;;;;;;;;;5107032;28;20055;-72
2022/06/24 14:24:35;;;;;;;9.80;5.13;;;;;;;;;;5107300;28;20044;-72
2022/06/24 14:27:10;;;;;;;13.70;5.47;;;;;;;;;;5106581;28;20039;-74
2022/06/24 14:29:40;;;;;;;12.80;5.35;;;;;;;;;;5087639;28;20044;-73
2022/06/24 14:32:10;;;;;;;20.33;5.97;;;;;;;;;;5106737;28;20498;-73
2022/06/24 14:34:40;;;;;;;20.25;14.70;;;;;;;;;;5107039;28;20414;-73
2022/06/24 14:40:11;;;;;;;17.75;6.15;;;;;;;;;;5106713;28;20039;-73
2022/06/24 14:43:01;;;;;;;;;;;;;;;;;;5107273;28;20043;-72
2022/06/24 14:45:31;;;;;;;14.57;7.20;;;;;;;;;;5110830;28;19924;-73
2022/06/24 14:48:04;;;;;;;20.70;7.40;;;;;;;;;;5110209;28;20062;-73
2022/06/24 14:50:34;;;;;;;9.45;5.95;;;;;;;;;;5110231;28;20046;-74
2022/06/24 14:53:04;;;;;;;17.90;7.55;;;;;;;;;;5110196;28;20505;-73
2022/06/24 14:55:34;;;;;;;15.60;6.47;;;;;;;;;;5109554;28;20502;-74
2022/06/24 14:58:04;;;;;;;15.18;5.28;;;;;;;;;;5110767;28;20054;-74
2022/06/24 15:00:35;;;;;;;15.40;4.43;;;;;;;;;;5110302;28;20043;-73
2022/06/24 15:03:06;;;;;;;5.53;2.42;;;;;;;;;;5109926;28;20052;-73
2022/06/24 15:05:36;;;;;;;13.75;3.83;;;;;;;;;;5110416;28;20040;-73
2022/06/24 15:08:06;;;;;;;14.48;3.70;;;;;;;;;;5109959;28;20047;-73
2022/06/24 15:10:36;;;;;;;11.20;3.35;;;;;;;;;;5110278;28;20418;-74
2022/06/24 15:13:07;;;;;;;10.57;3.33;;;;;;;;;;5110077;28;20524;-74
2022/06/24 15:15:37;;;;;;;11.10;3.50;;;;;;;;;;5109837;28;20062;-75
2022/06/24 15:18:07;;;;;;;16.00;3.88;;;;;;;;;;5110088;28;20058;-74
2022/06/24 15:20:37;;;;;;;11.43;3.15;;;;;;;;;;5091158;28;20074;-79